Raunds, United Kingdom
Current Conditions -  °F | °C
As of 4:50 AM on Saturday 29 Nov 2014 (Local Time) from EGXT Reporting Station
Haze Haze  
Wind Chill: 44°   Ceiling: 800
Heat Index: 48°   Visibility: 1.8mi
Dew Point: 48°   Wind: 9mph
Humidity: 100%   Direction: 50°NE
Pressure: 29.8"   Gusts: NA
Location:  52.34°N, 0.54°W
Report Text: EGXT 290450Z AUTO 05008KT 2900 BR BKN008/// SCT100/// 09/09 Q1009
Loading
Personal Weather Stations






























Interactive Weather Map New forecast layout! Learn more

10-Day Weather Forecast

Advertisements
Track Severe Weather on mobile